Pagrindinis puslapis
METAR-TAF:

METAR-TAF

Oro uostai :

Liepojos tarptautinis oro uostas

Liepoja, Latvija

platuma: 56-31N, ilguma: 021-05E, Aukštis: 5 m

Dabartinis oras

Ataskaita buvo paskelbta 33 minutes, ne 05:50 UTC
Vėjas 11 kt iš Rytų
Temperatūra 18°C
Drėgmė 68%
Slėgis 1018 hPa
Matomumas 10 km arba daugiau
nėra debesų žemiau 1500 m ir nėra kamuolinių lietaus debesų

METAR: EVLA 220550Z AUTO 08011KT CAVOK 18/12 Q1018

Laikas: 09:23 (06:23 UTC)

Prognozė

Ataskaita buvo paskelbta 1 valandą ir 17 minutes, ne 05:06 UTC
Prognozė galioja nuo 22 metu 06 UTC su 23 metu 06 UTC
Vėjas 10 kt iš Rytų/Šiaurės Rytų
Matomumas 10 km arba daugiau
nėra debesų žemiau 1500 m ir nėra kamuolinių lietaus debesų
Laikinai
nuo 22 metu 09 UTC su 22 metu 15 UTC
Vėjas 15 kt iš Rytų su gūsio iki 26 kt
Laikinai
nuo 22 metu 13 UTC su 22 metu 17 UTC
Išsisklaidę debesys ne aukštis 4000 ft, Liūtiniai kamuoliniai debesys.

TAF: EVLA 220506Z 2206/2306 07010KT CAVOK TEMPO 2209/2215 08015G26KT TEMPO 2213/2217 SCT040CB

Orai ataskaitas ir orų prognozės (METAR, TAF).

turimą stotys yra geltonos ir raudonos taškus žemėlapyje.

Perkelti pele per norėdami pamatyti stoties vardą.

Tada spustelėkite, norėdami matyti oro stebėjimo ir prognozės.

Norėdami pakeisti žemėlapį: spustelėkite ant žalios mygtukų su juodo kryžiaus žemyn,; žalią mygtuką su brūkšneliu, jei norite nutolinti; arba žalių rodyklių gretimoms žemėlapius.


METAR-TAF: